createdAt,value
2024-01-24T00:01:22.804Z,101717.63
2024-01-24T00:04:23.850Z,101711.91
2024-01-24T00:07:24.790Z,101707.58
2024-01-24T00:10:19.767Z,101702.40
2024-01-24T00:13:20.799Z,101692.88
2024-01-24T00:16:21.810Z,101683.02
2024-01-24T00:19:23.140Z,101678.35
2024-01-24T00:22:23.811Z,101680.95
2024-01-24T00:25:25.815Z,101677.50
2024-01-24T00:28:29.823Z,101684.26
2024-01-24T00:31:30.848Z,101680.80
2024-01-24T00:34:31.882Z,101676.16
2024-01-24T00:37:32.879Z,101675.44
2024-01-24T00:40:33.869Z,101674.06
2024-01-24T00:43:34.846Z,101668.70
2024-01-24T00:46:35.860Z,101670.60
2024-01-24T00:49:36.893Z,101666.64
2024-01-24T00:52:37.879Z,101668.21
2024-01-24T00:55:39.885Z,101663.73
2024-01-24T00:58:40.865Z,101656.66
2024-01-24T01:01:41.888Z,101653.55
2024-01-24T01:04:42.910Z,101660.28
2024-01-24T01:07:44.030Z,101652.85
2024-01-24T01:10:44.906Z,101647.84
2024-01-24T01:13:45.912Z,101640.75
2024-01-24T01:16:46.921Z,101633.84
2024-01-24T01:19:47.921Z,101625.89
2024-01-24T01:22:48.913Z,101621.41
2024-01-24T01:25:49.928Z,101616.73
2024-01-24T01:28:50.910Z,101612.07
2024-01-24T01:31:51.954Z,101613.64
2024-01-24T01:34:52.967Z,101612.45
2024-01-24T01:37:54.002Z,101611.05
2024-01-24T01:40:54.945Z,101610.88
2024-01-24T01:43:56.002Z,101613.30
2024-01-24T01:46:58.979Z,101604.84
2024-01-24T01:50:01.002Z,101597.92
2024-01-24T01:53:01.995Z,101592.23
2024-01-24T01:56:03.002Z,101589.98
2024-01-24T01:59:05.983Z,101587.91
2024-01-24T02:02:14.005Z,101589.30
2024-01-24T02:05:15.109Z,101588.09
2024-01-24T02:08:15.986Z,101597.95
2024-01-24T02:11:18.031Z,101602.42
2024-01-24T02:14:20.083Z,101607.77
2024-01-24T02:17:21.033Z,101606.75
2024-01-24T02:20:23.032Z,101614.17
2024-01-24T02:23:27.051Z,101616.41
2024-01-24T02:26:28.071Z,101618.98
2024-01-24T02:29:29.061Z,101619.17
2024-01-24T02:32:30.097Z,101621.40
2024-01-24T02:35:33.086Z,101620.55
2024-01-24T02:38:34.097Z,101613.45
2024-01-24T02:41:29.097Z,101613.44
2024-01-24T02:44:30.105Z,101612.40
2024-01-24T02:47:31.114Z,101612.58
2024-01-24T02:50:32.094Z,101608.92
2024-01-24T02:53:33.097Z,101608.04
2024-01-24T02:56:34.111Z,101604.38
2024-01-24T02:59:35.081Z,101604.39
2024-01-24T03:02:36.135Z,101608.52
2024-01-24T03:05:37.137Z,101605.40
2024-01-24T03:08:38.150Z,101605.73
2024-01-24T03:11:39.149Z,101598.99
2024-01-24T03:14:40.161Z,101596.41
2024-01-24T03:17:41.211Z,101597.45
2024-01-24T03:20:42.161Z,101590.36
2024-01-24T03:23:46.173Z,101586.05
2024-01-24T03:26:47.177Z,101583.27
2024-01-24T03:29:48.172Z,101584.31
2024-01-24T03:32:50.362Z,101582.08
2024-01-24T03:35:51.170Z,101581.73
2024-01-24T03:38:52.183Z,101585.20
2024-01-24T03:41:53.212Z,101581.56
2024-01-24T03:44:47.321Z,101577.95
2024-01-24T03:47:48.246Z,101590.08
2024-01-24T03:50:49.217Z,101593.36
2024-01-24T03:53:50.238Z,101591.48
2024-01-24T03:56:51.226Z,101590.60
2024-01-24T03:59:52.264Z,101582.65
2024-01-24T04:02:55.242Z,101580.05
2024-01-24T04:05:56.291Z,101583.52
2024-01-24T04:09:00.252Z,101587.48
2024-01-24T04:12:01.253Z,101587.66
2024-01-24T04:15:02.285Z,101582.98
2024-01-24T04:18:03.282Z,101588.36
2024-01-24T04:21:04.269Z,101587.48
2024-01-24T04:24:05.299Z,101585.23
2024-01-24T04:27:06.280Z,101587.30
2024-01-24T04:30:07.337Z,101582.63
2024-01-24T04:33:08.341Z,101580.23
2024-01-24T04:36:09.301Z,101582.08
2024-01-24T04:39:10.308Z,101582.61
2024-01-24T04:42:16.596Z,101586.57
2024-01-24T04:45:18.451Z,101592.09
2024-01-24T04:48:19.513Z,101596.92
2024-01-24T04:51:13.531Z,101595.37
2024-01-24T04:54:01.364Z,101591.55
2024-01-24T04:57:02.335Z,101589.29
2024-01-24T05:00:03.401Z,101584.96
2024-01-24T05:03:04.342Z,101581.98
2024-01-24T05:06:10.452Z,101579.39
2024-01-24T05:09:12.425Z,101578.52
2024-01-24T05:12:13.410Z,101570.72
2024-01-24T05:15:16.411Z,101568.28
2024-01-24T05:18:17.462Z,101559.81
2024-01-24T05:21:18.385Z,101565.16
2024-01-24T05:24:19.440Z,101566.54
2024-01-24T05:27:20.461Z,101567.23
2024-01-24T05:30:33.805Z,101571.70
2024-01-24T05:33:36.484Z,101568.20
2024-01-24T05:36:37.614Z,101564.88
2024-01-24T05:39:38.419Z,101565.20
2024-01-24T05:42:40.515Z,101568.81
2024-01-24T05:45:41.505Z,101556.30
2024-01-24T05:48:42.507Z,101552.95
2024-01-24T05:51:43.550Z,101556.52
2024-01-24T05:54:44.484Z,101558.55
2024-01-24T05:57:47.633Z,101558.46
2024-01-24T06:00:48.512Z,101556.32
2024-01-24T06:03:49.656Z,101551.41
2024-01-24T06:06:51.528Z,101548.40
2024-01-24T06:09:52.528Z,101554.79
2024-01-24T06:12:53.528Z,101557.90
2024-01-24T06:15:54.569Z,101553.20
2024-01-24T06:18:55.593Z,101548.48
2024-01-24T06:21:56.619Z,101529.52
2024-01-24T06:24:58.615Z,101524.80
2024-01-24T06:27:59.563Z,101526.47
2024-01-24T06:31:00.554Z,101523.96
2024-01-24T06:34:01.567Z,101526.80
2024-01-24T06:37:02.540Z,101518.21
2024-01-24T06:40:03.526Z,101515.15
2024-01-24T06:43:04.586Z,101514.66
2024-01-24T06:46:05.546Z,101512.84
2024-01-24T06:49:06.590Z,101518.77
2024-01-24T06:52:07.591Z,101521.13
2024-01-24T06:55:08.571Z,101526.58
2024-01-24T06:58:09.630Z,101529.27
2024-01-24T07:01:10.730Z,101525.02
2024-01-24T07:04:11.824Z,101519.86
2024-01-24T07:07:12.624Z,101519.05
2024-01-24T07:10:16.597Z,101515.26
2024-01-24T07:13:17.582Z,101512.02
2024-01-24T07:16:18.838Z,101502.88
2024-01-24T07:19:19.650Z,101498.56
2024-01-24T07:22:20.641Z,101497.86
2024-01-24T07:25:22.619Z,101497.36
2024-01-24T07:28:23.657Z,101502.95
2024-01-24T07:31:25.683Z,101495.50
2024-01-24T07:34:26.770Z,101493.08
2024-01-24T07:37:27.671Z,101488.05
2024-01-24T07:40:28.656Z,101483.67
2024-01-24T07:43:29.669Z,101476.37
2024-01-24T07:46:32.654Z,101466.94
2024-01-24T07:49:34.653Z,101462.73
2024-01-24T07:52:40.957Z,101458.96
2024-01-24T07:55:53.482Z,101459.71
2024-01-24T07:58:59.705Z,101455.20
2024-01-24T08:02:00.760Z,101452.76
2024-01-24T08:05:01.943Z,101454.50
2024-01-24T08:08:03.707Z,101448.96
2024-01-24T08:11:04.719Z,101446.20
2024-01-24T08:14:06.836Z,101445.71
2024-01-24T08:17:19.719Z,101436.73
2024-01-24T08:20:21.774Z,101435.20
2024-01-24T08:23:26.680Z,101434.02
2024-01-24T08:26:32.824Z,101440.50
2024-01-24T08:29:37.693Z,101436.39
2024-01-24T08:32:38.880Z,101438.73
2024-01-24T08:35:43.787Z,101445.02
2024-01-24T08:38:44.773Z,101443.63
2024-01-24T08:41:45.776Z,101438.73
2024-01-24T08:44:46.778Z,101428.73
2024-01-24T08:47:47.841Z,101423.38
2024-01-24T08:50:48.777Z,101425.26
2024-01-24T08:53:52.811Z,101424.55
2024-01-24T08:56:53.827Z,101421.56
2024-01-24T08:59:54.854Z,101414.44
2024-01-24T09:02:56.854Z,101409.94
2024-01-24T09:05:57.843Z,101411.17
2024-01-24T09:09:01.876Z,101412.20
2024-01-24T09:12:02.854Z,101407.92
2024-01-24T09:15:03.860Z,101399.85
2024-01-24T09:18:05.891Z,101395.65
2024-01-24T09:21:06.898Z,101388.94
2024-01-24T09:24:07.880Z,101376.49
2024-01-24T09:27:08.898Z,101371.34
2024-01-24T09:30:12.650Z,101356.33
2024-01-24T09:33:14.003Z,101344.70
2024-01-24T09:36:14.908Z,101327.43
2024-01-24T09:39:16.933Z,101315.15
2024-01-24T09:42:18.920Z,101314.93
2024-01-24T09:45:21.946Z,101315.02
2024-01-24T09:48:25.005Z,101302.01
2024-01-24T09:51:26.966Z,101289.34
2024-01-24T09:54:27.965Z,101279.36
2024-01-24T09:57:29.054Z,101278.70
2024-01-24T10:00:24.045Z,101279.67
2024-01-24T10:03:25.982Z,101274.23
2024-01-24T10:06:27.001Z,101265.98
2024-01-24T10:09:28.985Z,101262.02
2024-01-24T10:12:29.954Z,101261.70
2024-01-24T10:15:30.971Z,101258.20
2024-01-24T10:18:32.123Z,101250.91
2024-01-24T10:21:33.139Z,101244.40
2024-01-24T10:24:35.995Z,101237.35
2024-01-24T10:27:37.080Z,101230.04
2024-01-24T10:30:38.071Z,101223.65
2024-01-24T10:33:39.203Z,101213.04
2024-01-24T10:36:43.894Z,101188.27
2024-01-24T10:39:49.131Z,101175.23
2024-01-24T10:42:52.084Z,101172.93
2024-01-24T10:45:59.112Z,101162.27
2024-01-24T10:49:00.083Z,101152.06
2024-01-24T10:52:04.133Z,101145.40
2024-01-24T10:55:07.405Z,101136.03
2024-01-24T10:58:09.585Z,101124.38
2024-01-24T11:01:11.093Z,101109.81
2024-01-24T11:04:14.099Z,101102.75
2024-01-24T11:07:23.055Z,101097.63
2024-01-24T11:10:33.163Z,101085.54
2024-01-24T11:13:34.093Z,101076.04
2024-01-24T11:16:53.108Z,101083.55
2024-01-24T11:19:54.244Z,101085.46
2024-01-24T11:22:55.120Z,101075.39
2024-01-24T11:25:57.171Z,101083.98
2024-01-24T11:28:59.120Z,101076.44
2024-01-24T11:32:00.155Z,101066.84
2024-01-24T11:35:01.201Z,101071.16
2024-01-24T11:41:20.121Z,101056.98
2024-01-24T11:44:26.154Z,101056.34
2024-01-24T11:47:28.182Z,101055.96
2024-01-24T11:50:29.162Z,101050.80
2024-01-24T11:53:31.142Z,101049.33
2024-01-24T11:56:32.188Z,101059.51
2024-01-24T11:59:36.166Z,101068.54
2024-01-24T12:02:37.191Z,101072.20
2024-01-24T12:05:38.173Z,101069.38
2024-01-24T12:08:39.226Z,101071.41
2024-01-24T12:11:40.212Z,101065.89
2024-01-24T12:14:41.203Z,101070.09
2024-01-24T12:17:42.327Z,101072.60
2024-01-24T12:20:43.204Z,101064.61
2024-01-24T12:23:44.309Z,101057.73
2024-01-24T12:26:45.221Z,101052.22
2024-01-24T12:29:47.233Z,101048.48
2024-01-24T12:32:48.262Z,101043.43
2024-01-24T12:35:50.541Z,101046.42
2024-01-24T12:38:54.839Z,101048.19
2024-01-24T12:41:56.279Z,101035.73
2024-01-24T12:44:57.282Z,101032.02
2024-01-24T12:47:58.370Z,101033.60
2024-01-24T12:50:59.508Z,101021.24
2024-01-24T12:54:01.295Z,101017.02
2024-01-24T12:57:03.286Z,101011.77
2024-01-24T13:00:05.392Z,100998.92
2024-01-24T13:03:06.713Z,100993.36
2024-01-24T13:06:08.381Z,100993.45
2024-01-24T13:09:09.328Z,100991.61
2024-01-24T13:12:11.353Z,100991.40
2024-01-24T13:15:15.310Z,100990.64
2024-01-24T13:18:16.424Z,100989.58
2024-01-24T13:21:17.364Z,100988.88
2024-01-24T13:24:18.321Z,100992.80
2024-01-24T13:27:20.379Z,100992.16
2024-01-24T13:30:21.419Z,100987.10
2024-01-24T13:33:22.508Z,100986.94
2024-01-24T13:36:24.385Z,100980.81
2024-01-24T13:39:26.414Z,100982.34
2024-01-24T13:42:27.377Z,100976.90
2024-01-24T13:45:28.413Z,100976.48
2024-01-24T13:48:29.497Z,100964.77
2024-01-24T13:51:27.242Z,100964.11
2024-01-24T13:54:23.728Z,100964.05
2024-01-24T13:57:24.466Z,100960.18
2024-01-24T14:00:21.520Z,100963.41
2024-01-24T14:03:22.457Z,100958.92
2024-01-24T14:06:25.450Z,100952.54
2024-01-24T14:09:26.458Z,100955.83
2024-01-24T14:12:27.573Z,100947.77
2024-01-24T14:15:34.731Z,100945.73
2024-01-24T14:18:37.551Z,100946.22
2024-01-24T14:21:39.479Z,100944.67
2024-01-24T14:24:40.458Z,100947.09
2024-01-24T14:27:41.491Z,100948.91
2024-01-24T14:30:42.578Z,100947.73
2024-01-24T14:33:43.800Z,100946.35
2024-01-24T14:36:52.434Z,100948.94
2024-01-24T14:39:56.640Z,100951.66
2024-01-24T14:42:57.536Z,100955.40
2024-01-24T14:45:58.652Z,100960.17
2024-01-24T14:48:59.710Z,100956.20
2024-01-24T14:52:00.719Z,100952.70
2024-01-24T14:55:01.694Z,100941.61
2024-01-24T14:58:03.588Z,100935.36
2024-01-24T15:01:04.673Z,100933.80
2024-01-24T15:04:05.829Z,100932.52
2024-01-24T15:07:06.650Z,100935.23
2024-01-24T15:10:07.600Z,100930.64
2024-01-24T15:13:08.706Z,100929.50
2024-01-24T15:16:09.599Z,100927.27
2024-01-24T15:19:11.601Z,100926.25
2024-01-24T15:22:12.623Z,100927.89
2024-01-24T15:25:13.722Z,100924.48
2024-01-24T15:28:14.576Z,100917.55
2024-01-24T15:31:15.625Z,100918.70
2024-01-24T15:34:16.902Z,100918.51
2024-01-24T15:37:11.851Z,100911.85
2024-01-24T15:40:13.098Z,100915.13
2024-01-24T15:43:16.704Z,100919.28
2024-01-24T15:46:17.710Z,100920.98
2024-01-24T15:49:18.713Z,100923.45
2024-01-24T15:52:20.659Z,100918.94
2024-01-24T15:55:22.789Z,100914.06
2024-01-24T15:58:23.659Z,100914.24
2024-01-24T16:01:24.727Z,100916.44
2024-01-24T16:04:29.747Z,100914.09
2024-01-24T16:07:27.717Z,100910.52
2024-01-24T16:10:08.813Z,100907.50
2024-01-24T16:12:55.721Z,100907.92
2024-01-24T16:15:44.777Z,100907.31
2024-01-24T16:18:45.712Z,100903.42
2024-01-24T16:21:46.744Z,100907.23
2024-01-24T16:24:47.705Z,100901.45
2024-01-24T16:27:48.723Z,100896.53
2024-01-24T16:30:50.768Z,100897.05
2024-01-24T16:33:51.770Z,100894.67
2024-01-24T16:36:53.236Z,100894.95
2024-01-24T16:39:53.736Z,100900.21
2024-01-24T16:42:54.787Z,100894.85
2024-01-24T16:45:58.767Z,100889.81
2024-01-24T16:49:02.826Z,100890.42
2024-01-24T16:52:03.786Z,100884.77
2024-01-24T16:55:04.937Z,100875.88
2024-01-24T16:58:05.816Z,100874.25
2024-01-24T17:01:06.803Z,100865.18
2024-01-24T17:04:07.793Z,100856.48
2024-01-24T17:07:08.894Z,100852.76
2024-01-24T17:10:09.812Z,100840.86
2024-01-24T17:13:12.872Z,100829.02
2024-01-24T17:16:13.802Z,100823.06
2024-01-24T17:19:14.836Z,100825.63
2024-01-24T17:22:15.811Z,100827.98
2024-01-24T17:25:17.811Z,100828.02
2024-01-24T17:28:19.825Z,100822.31
2024-01-24T17:31:20.816Z,100820.05
2024-01-24T17:34:21.998Z,100815.03
2024-01-24T17:37:22.840Z,100806.92
2024-01-24T17:40:23.853Z,100805.52
2024-01-24T17:43:24.842Z,100808.79
2024-01-24T17:46:25.861Z,100813.44
2024-01-24T17:49:27.634Z,100809.55
2024-01-24T17:52:30.884Z,100803.90
2024-01-24T17:55:36.857Z,100804.88
2024-01-24T17:58:39.888Z,100800.97
2024-01-24T18:01:41.001Z,100800.41
2024-01-24T18:04:41.937Z,100794.98
2024-01-24T18:07:42.984Z,100790.96
2024-01-24T18:10:43.887Z,100790.14
2024-01-24T18:13:44.921Z,100787.39
2024-01-24T18:16:45.888Z,100782.07
2024-01-24T18:19:47.109Z,100778.64
2024-01-24T18:22:50.133Z,100778.49
2024-01-24T18:25:51.932Z,100781.30
2024-01-24T18:28:54.918Z,100774.33
2024-01-24T18:31:49.007Z,100772.05
2024-01-24T18:34:49.995Z,100764.66
2024-01-24T18:37:51.922Z,100757.95
2024-01-24T18:40:46.072Z,100751.65
2024-01-24T18:43:49.194Z,100750.05
2024-01-24T18:46:52.955Z,100739.64
2024-01-24T18:49:55.996Z,100727.80
2024-01-24T18:52:56.991Z,100725.01
2024-01-24T18:55:58.000Z,100724.06
2024-01-24T18:58:58.985Z,100720.33
2024-01-24T19:02:03.412Z,100715.98
2024-01-24T19:05:06.147Z,100713.02
2024-01-24T19:08:07.003Z,100712.17
2024-01-24T19:11:08.025Z,100707.70
2024-01-24T19:14:10.012Z,100705.15
2024-01-24T19:17:11.064Z,100695.12
2024-01-24T19:20:15.351Z,100695.88
2024-01-24T19:23:17.145Z,100687.09
2024-01-24T19:26:18.085Z,100680.77
2024-01-24T19:29:19.073Z,100683.22
2024-01-24T19:32:22.090Z,100681.34
2024-01-24T19:35:23.067Z,100679.36
2024-01-24T19:38:24.072Z,100676.27
2024-01-24T19:41:25.067Z,100674.91
2024-01-24T19:44:27.066Z,100668.69
2024-01-24T19:47:28.100Z,100669.71
2024-01-24T19:50:31.090Z,100672.23
2024-01-24T19:53:34.033Z,100677.65
2024-01-24T19:56:35.127Z,100675.90
2024-01-24T19:59:36.111Z,100676.59
2024-01-24T20:02:38.304Z,100667.23
2024-01-24T20:05:39.218Z,100666.81
2024-01-24T20:08:40.119Z,100661.66
2024-01-24T20:11:41.157Z,100658.52
2024-01-24T20:14:43.132Z,100661.77
2024-01-24T20:17:44.155Z,100659.68
2024-01-24T20:20:45.135Z,100653.94
2024-01-24T20:23:47.165Z,100655.80
2024-01-24T20:26:49.137Z,100649.44
2024-01-24T20:29:50.175Z,100645.30
2024-01-24T20:32:57.583Z,100640.01
2024-01-24T20:36:05.177Z,100636.45
2024-01-24T20:39:06.167Z,100622.80
2024-01-24T20:42:11.154Z,100613.34
2024-01-24T20:45:15.217Z,100604.08
2024-01-24T20:48:16.680Z,100587.88
2024-01-24T20:51:18.183Z,100581.73
2024-01-24T20:54:19.222Z,100581.89
2024-01-24T20:57:20.218Z,100583.58
2024-01-24T21:00:22.203Z,100586.31
2024-01-24T21:03:24.243Z,100589.08
2024-01-24T21:06:25.236Z,100593.55
2024-01-24T21:09:26.269Z,100599.79
2024-01-24T21:12:27.216Z,100600.36
2024-01-24T21:15:28.231Z,100601.05
2024-01-24T21:18:29.254Z,100604.25
2024-01-24T21:21:30.356Z,100601.91
2024-01-24T21:24:31.274Z,100587.46
2024-01-24T21:27:32.287Z,100583.48
2024-01-24T21:30:33.324Z,100580.56
2024-01-24T21:33:34.324Z,100578.80
2024-01-24T21:36:37.225Z,100568.92
2024-01-24T21:39:38.291Z,100559.55
2024-01-24T21:42:39.342Z,100556.41
2024-01-24T21:45:40.314Z,100547.41
2024-01-24T21:48:43.523Z,100541.95
2024-01-24T21:51:45.344Z,100537.33
2024-01-24T21:54:46.378Z,100543.11
2024-01-24T21:57:47.365Z,100540.10
2024-01-24T22:00:48.415Z,100534.89
2024-01-24T22:03:50.569Z,100523.14
2024-01-24T22:06:51.381Z,100514.71
2024-01-24T22:09:55.483Z,100509.79
2024-01-24T22:12:56.471Z,100504.91
2024-01-24T22:15:58.619Z,100503.95
2024-01-24T22:19:00.482Z,100496.24
2024-01-24T22:22:01.400Z,100489.89
2024-01-24T22:25:02.559Z,100481.47
2024-01-24T22:28:03.419Z,100475.70
2024-01-24T22:31:04.475Z,100472.05
2024-01-24T22:34:05.584Z,100472.09
2024-01-24T22:37:06.461Z,100469.06
2024-01-24T22:40:07.517Z,100466.10
2024-01-24T22:43:08.444Z,100464.14
2024-01-24T22:46:10.491Z,100462.73
2024-01-24T22:49:11.582Z,100463.52
2024-01-24T22:52:12.544Z,100459.92
2024-01-24T22:55:13.526Z,100459.41
2024-01-24T22:58:14.506Z,100450.59
2024-01-24T23:01:15.558Z,100445.77
2024-01-24T23:04:16.505Z,100441.31
2024-01-24T23:07:17.605Z,100434.95
2024-01-24T23:10:18.638Z,100433.41
2024-01-24T23:13:19.635Z,100427.16
2024-01-24T23:16:20.659Z,100422.64
2024-01-24T23:19:22.580Z,100422.90
2024-01-24T23:22:23.695Z,100419.65
2024-01-24T23:25:24.542Z,100419.17
2024-01-24T23:28:25.633Z,100413.11
2024-01-24T23:31:26.551Z,100405.27
2024-01-24T23:34:27.614Z,100398.45
2024-01-24T23:37:28.662Z,100392.90
2024-01-24T23:40:22.692Z,100386.10
2024-01-24T23:43:23.586Z,100376.85
2024-01-24T23:46:24.584Z,100374.18
2024-01-24T23:49:25.780Z,100363.09
2024-01-24T23:52:26.669Z,100355.85
2024-01-24T23:55:27.660Z,100349.73
2024-01-24T23:58:28.573Z,100340.66
